createdAt,value
2017-10-28T00:01:33.783Z,10.60
2017-10-28T00:04:01.438Z,10.60
2017-10-28T00:06:29.059Z,10.60
2017-10-28T00:08:56.668Z,10.60
2017-10-28T00:11:24.300Z,10.60
2017-10-28T00:13:51.880Z,10.60
2017-10-28T00:16:19.529Z,10.60
2017-10-28T00:18:47.143Z,10.70
2017-10-28T00:21:14.778Z,10.50
2017-10-28T00:23:42.326Z,10.50
2017-10-28T00:26:09.938Z,10.50
2017-10-28T00:28:37.552Z,10.50
2017-10-28T00:31:10.905Z,10.50
2017-10-28T00:33:44.077Z,10.50
2017-10-28T00:36:14.615Z,10.40
2017-10-28T00:38:42.221Z,10.50
2017-10-28T00:41:09.834Z,10.50
2017-10-28T00:43:37.479Z,10.50
2017-10-28T00:46:05.093Z,10.60
2017-10-28T00:48:32.738Z,10.70
2017-10-28T00:51:00.348Z,10.60
2017-10-28T00:53:27.985Z,10.60
2017-10-28T00:55:55.614Z,10.60
2017-10-28T00:58:24.024Z,10.60
2017-10-28T01:00:51.590Z,10.50
2017-10-28T01:03:19.161Z,10.50
2017-10-28T01:05:46.776Z,10.50
2017-10-28T01:08:14.403Z,10.50
2017-10-28T01:10:42.016Z,10.50
2017-10-28T01:13:10.433Z,10.60
2017-10-28T01:15:38.075Z,10.50
2017-10-28T01:18:05.682Z,10.60
2017-10-28T01:20:33.314Z,10.60
2017-10-28T01:23:01.009Z,10.70
2017-10-28T01:25:29.392Z,10.80
2017-10-28T01:27:57.059Z,10.80
2017-10-28T01:30:25.478Z,10.80
2017-10-28T01:32:53.089Z,10.70
2017-10-28T01:35:20.656Z,10.70
2017-10-28T01:37:48.312Z,10.60
2017-10-28T01:40:15.919Z,10.70
2017-10-28T01:42:43.551Z,10.60
2017-10-28T01:45:11.184Z,10.60
2017-10-28T01:47:38.858Z,10.60
2017-10-28T01:50:06.445Z,10.50
2017-10-28T01:52:34.025Z,10.40
2017-10-28T01:55:01.603Z,10.40
2017-10-28T01:57:29.277Z,10.40
2017-10-28T01:59:56.889Z,10.50
2017-10-28T02:02:25.352Z,10.50
2017-10-28T02:04:52.971Z,10.50
2017-10-28T02:07:21.725Z,10.60
2017-10-28T02:09:49.372Z,10.50
2017-10-28T02:12:17.741Z,10.60
2017-10-28T02:14:45.376Z,10.50
2017-10-28T02:17:12.974Z,10.50
2017-10-28T02:19:40.602Z,10.50
2017-10-28T02:22:08.187Z,10.50
2017-10-28T02:24:36.616Z,10.50
2017-10-28T02:27:04.282Z,10.50
2017-10-28T02:29:31.889Z,10.50
2017-10-28T02:31:59.548Z,10.50
2017-10-28T02:34:27.201Z,10.60
2017-10-28T02:36:54.864Z,10.60
2017-10-28T02:39:22.552Z,10.50
2017-10-28T02:41:50.267Z,10.50
2017-10-28T02:44:17.946Z,10.50
2017-10-28T02:46:46.449Z,10.50
2017-10-28T02:49:14.045Z,10.40
2017-10-28T02:51:41.751Z,10.40
2017-10-28T02:54:09.423Z,10.40
2017-10-28T02:56:37.004Z,10.50
2017-10-28T02:59:04.728Z,10.50
2017-10-28T03:01:32.334Z,10.50
2017-10-28T03:03:59.992Z,10.50
2017-10-28T03:06:27.597Z,10.50
2017-10-28T03:08:55.191Z,10.40
2017-10-28T03:11:22.818Z,10.40
2017-10-28T03:13:51.205Z,10.50
2017-10-28T03:16:18.825Z,10.40
2017-10-28T03:18:47.136Z,10.50
2017-10-28T03:21:15.568Z,10.50
2017-10-28T03:23:43.209Z,10.40
2017-10-28T03:26:10.859Z,10.40
2017-10-28T03:28:38.580Z,10.40
2017-10-28T03:31:07.073Z,10.40
2017-10-28T03:33:34.610Z,10.40
2017-10-28T03:36:02.196Z,10.40
2017-10-28T03:38:29.891Z,10.30
2017-10-28T03:40:57.541Z,10.20
2017-10-28T03:43:25.168Z,10.10
2017-10-28T03:45:53.594Z,10.10
2017-10-28T03:48:21.215Z,10.00
2017-10-28T03:50:49.012Z,10.10
2017-10-28T03:53:16.629Z,10.00
2017-10-28T03:55:44.988Z,10.00
2017-10-28T03:58:13.341Z,10.00
2017-10-28T04:00:40.951Z,10.00
2017-10-28T04:03:08.580Z,10.00
2017-10-28T04:05:36.173Z,10.00
2017-10-28T04:08:04.625Z,10.00
2017-10-28T04:10:33.047Z,10.10
2017-10-28T04:13:00.728Z,10.10
2017-10-28T04:15:28.311Z,10.10
2017-10-28T04:17:55.904Z,10.10
2017-10-28T04:20:23.531Z,10.10
2017-10-28T04:22:51.097Z,10.10
2017-10-28T04:25:18.746Z,10.20
2017-10-28T04:27:46.338Z,10.20
2017-10-28T04:30:13.984Z,10.20
2017-10-28T04:32:41.643Z,10.20
2017-10-28T04:35:09.292Z,10.20
2017-10-28T04:37:37.181Z,10.20
2017-10-28T04:40:04.814Z,10.20
2017-10-28T04:42:32.470Z,10.20
2017-10-28T04:45:00.105Z,10.20
2017-10-28T04:47:27.721Z,10.30
2017-10-28T04:49:55.350Z,10.30
2017-10-28T04:52:22.983Z,10.20
2017-10-28T04:54:50.583Z,10.20
2017-10-28T04:57:18.329Z,10.20
2017-10-28T04:59:45.969Z,10.20
2017-10-28T05:02:13.581Z,10.20
2017-10-28T05:04:41.212Z,10.20
2017-10-28T05:07:08.873Z,10.20
2017-10-28T05:09:36.493Z,10.10
2017-10-28T05:12:04.878Z,10.20
2017-10-28T05:14:33.364Z,10.20
2017-10-28T05:17:01.834Z,10.10
2017-10-28T05:19:30.255Z,10.10
2017-10-28T05:21:57.864Z,10.00
2017-10-28T05:24:25.505Z,10.00
2017-10-28T05:26:53.159Z,10.00
2017-10-28T05:29:21.541Z,10.10
2017-10-28T05:31:49.148Z,10.10
2017-10-28T05:34:17.591Z,10.10
2017-10-28T05:36:45.275Z,10.10
2017-10-28T05:39:13.768Z,10.10
2017-10-28T05:41:41.413Z,10.10
2017-10-28T05:44:09.068Z,10.10
2017-10-28T05:46:36.771Z,10.10
2017-10-28T05:49:04.423Z,10.10
2017-10-28T05:51:32.091Z,10.20
2017-10-28T05:53:59.866Z,10.20
2017-10-28T05:56:27.573Z,10.20
2017-10-28T05:58:55.233Z,10.20
2017-10-28T06:01:22.896Z,10.20
2017-10-28T06:03:50.522Z,10.20
2017-10-28T06:06:18.239Z,10.10
2017-10-28T06:08:45.846Z,10.20
2017-10-28T06:11:13.437Z,10.20
2017-10-28T06:13:41.098Z,10.10
2017-10-28T06:16:08.681Z,10.00
2017-10-28T06:18:37.071Z,10.10
2017-10-28T06:21:04.689Z,10.10
2017-10-28T06:23:32.310Z,10.10
2017-10-28T06:26:00.684Z,9.90
2017-10-28T06:28:28.262Z,9.90
2017-10-28T06:30:56.655Z,10.10
2017-10-28T06:33:24.346Z,10.00
2017-10-28T06:35:51.990Z,10.10
2017-10-28T06:38:19.571Z,10.10
2017-10-28T06:40:47.149Z,10.00
2017-10-28T06:43:14.852Z,10.00
2017-10-28T06:45:42.498Z,10.00
2017-10-28T06:48:10.896Z,10.20
2017-10-28T06:50:38.485Z,10.20
2017-10-28T06:53:06.144Z,10.20
2017-10-28T06:55:33.749Z,10.30
2017-10-28T06:58:01.378Z,10.30
2017-10-28T07:00:29.097Z,10.30
2017-10-28T07:02:56.720Z,10.20
2017-10-28T07:05:24.337Z,10.30
2017-10-28T07:07:51.975Z,10.20
2017-10-28T07:10:20.358Z,10.30
2017-10-28T07:12:47.984Z,10.30
2017-10-28T07:15:15.680Z,10.40
2017-10-28T07:17:43.316Z,10.40
2017-10-28T07:20:10.919Z,10.40
2017-10-28T07:22:38.612Z,10.40
2017-10-28T07:25:07.145Z,10.40
2017-10-28T07:27:34.827Z,10.40
2017-10-28T07:30:02.512Z,10.40
2017-10-28T07:32:30.130Z,10.40
2017-10-28T07:34:57.744Z,10.30
2017-10-28T07:37:25.406Z,10.20
2017-10-28T07:39:53.021Z,10.30
2017-10-28T07:42:22.446Z,10.30
2017-10-28T07:44:50.118Z,10.30
2017-10-28T07:47:17.722Z,10.40
2017-10-28T07:49:46.127Z,10.30
2017-10-28T07:52:13.745Z,10.30
2017-10-28T07:54:45.611Z,10.30
2017-10-28T07:57:14.070Z,10.40
2017-10-28T07:59:42.021Z,10.40
2017-10-28T08:02:09.648Z,10.40
2017-10-28T08:04:38.029Z,10.40
2017-10-28T08:07:05.688Z,10.50
2017-10-28T08:09:34.077Z,10.70
2017-10-28T08:12:01.772Z,10.70
2017-10-28T08:14:30.159Z,10.80
2017-10-28T08:16:57.767Z,10.80
2017-10-28T08:19:26.232Z,10.60
2017-10-28T08:21:53.883Z,10.60
2017-10-28T08:24:21.505Z,10.40
2017-10-28T08:26:49.128Z,10.50
2017-10-28T08:29:16.793Z,10.50
2017-10-28T08:31:44.394Z,10.60
2017-10-28T08:34:12.030Z,10.60
2017-10-28T08:36:39.675Z,10.50
2017-10-28T08:39:08.052Z,10.60
2017-10-28T08:41:36.451Z,10.60
2017-10-28T08:44:04.167Z,10.60
2017-10-28T08:46:31.797Z,10.70
2017-10-28T08:49:00.207Z,10.60
2017-10-28T08:51:27.910Z,10.60
2017-10-28T08:53:55.503Z,10.70
2017-10-28T08:56:23.197Z,10.80
2017-10-28T08:58:50.751Z,10.80
2017-10-28T09:01:18.420Z,10.70
2017-10-28T09:03:46.455Z,10.80
2017-10-28T09:06:14.100Z,10.80
2017-10-28T09:08:41.809Z,10.90
2017-10-28T09:11:09.438Z,11.10
2017-10-28T09:13:37.057Z,11.00
2017-10-28T09:16:04.633Z,11.10
2017-10-28T09:18:32.238Z,11.00
2017-10-28T09:20:59.878Z,10.80
2017-10-28T09:23:27.524Z,10.80
2017-10-28T09:25:55.128Z,10.80
2017-10-28T09:28:22.799Z,10.90
2017-10-28T09:30:50.406Z,10.90
2017-10-28T09:33:18.034Z,10.90
2017-10-28T09:35:45.677Z,11.00
2017-10-28T09:38:13.322Z,11.00
2017-10-28T09:40:40.994Z,11.00
2017-10-28T09:43:08.601Z,11.00
2017-10-28T09:45:37.084Z,11.00
2017-10-28T09:48:05.423Z,11.00
2017-10-28T09:50:33.063Z,11.00
2017-10-28T09:53:01.498Z,11.00
2017-10-28T09:55:29.095Z,11.00
2017-10-28T09:57:56.711Z,11.10
2017-10-28T10:00:24.321Z,11.10
2017-10-28T10:02:51.924Z,11.10
2017-10-28T10:05:20.436Z,11.00
2017-10-28T10:07:48.037Z,11.00
2017-10-28T10:10:15.705Z,10.80
2017-10-28T10:12:43.354Z,11.00
2017-10-28T10:15:10.979Z,11.00
2017-10-28T10:17:38.612Z,11.00
2017-10-28T10:20:06.984Z,11.10
2017-10-28T10:22:34.661Z,11.10
2017-10-28T10:25:03.047Z,11.30
2017-10-28T10:27:30.646Z,11.30
2017-10-28T10:29:58.278Z,11.20
2017-10-28T10:32:26.254Z,11.20
2017-10-28T10:34:53.889Z,11.40
2017-10-28T10:37:22.371Z,11.40
2017-10-28T10:39:50.793Z,11.30
2017-10-28T10:42:18.456Z,11.30
2017-10-28T10:44:46.053Z,11.40
2017-10-28T10:47:14.477Z,11.20
2017-10-28T10:49:42.129Z,11.30
2017-10-28T10:52:09.842Z,11.30
2017-10-28T10:54:37.448Z,11.20
2017-10-28T10:57:05.075Z,11.20
2017-10-28T10:59:32.693Z,11.20
2017-10-28T11:02:00.480Z,11.20
2017-10-28T11:04:28.099Z,11.30
2017-10-28T11:06:55.736Z,11.40
2017-10-28T11:09:23.397Z,11.40
2017-10-28T11:11:51.817Z,11.40
2017-10-28T11:14:19.473Z,11.40
2017-10-28T11:16:47.059Z,11.40
2017-10-28T11:19:14.711Z,11.50
2017-10-28T11:21:42.409Z,11.40
2017-10-28T11:24:10.021Z,11.50
2017-10-28T11:26:37.656Z,11.60
2017-10-28T11:29:05.299Z,11.70
2017-10-28T11:31:32.953Z,11.80
2017-10-28T11:34:00.583Z,11.90
2017-10-28T11:36:28.250Z,11.60
2017-10-28T11:38:55.838Z,11.70
2017-10-28T11:41:24.305Z,11.70
2017-10-28T11:43:51.921Z,11.60
2017-10-28T11:46:19.904Z,11.50
2017-10-28T11:48:47.512Z,11.70
2017-10-28T11:51:15.166Z,11.70
2017-10-28T11:53:42.818Z,11.60
2017-10-28T11:56:10.442Z,11.70
2017-10-28T11:58:38.076Z,11.50
2017-10-28T12:01:05.740Z,11.60
2017-10-28T12:03:34.979Z,11.50
2017-10-28T12:06:02.668Z,11.50
2017-10-28T12:08:30.239Z,11.50
2017-10-28T12:10:57.850Z,11.30
2017-10-28T12:13:25.494Z,11.40
2017-10-28T12:15:53.210Z,11.60
2017-10-28T12:18:20.808Z,11.60
2017-10-28T12:20:49.205Z,11.70
2017-10-28T12:23:17.508Z,11.70
2017-10-28T12:25:45.091Z,11.80
2017-10-28T12:28:13.677Z,11.80
2017-10-28T12:30:41.281Z,11.80
2017-10-28T12:33:08.969Z,12.00
2017-10-28T12:35:36.605Z,11.80
2017-10-28T12:38:04.976Z,11.90
2017-10-28T12:40:33.353Z,12.00
2017-10-28T12:43:02.237Z,12.10
2017-10-28T12:45:30.039Z,12.10
2017-10-28T12:47:57.772Z,12.20
2017-10-28T12:50:26.145Z,12.10
2017-10-28T12:52:53.779Z,12.10
2017-10-28T12:55:22.264Z,11.90
2017-10-28T12:57:49.852Z,11.90
2017-10-28T13:00:17.784Z,12.10
2017-10-28T13:02:45.453Z,12.20
2017-10-28T13:05:13.067Z,12.20
2017-10-28T13:07:40.628Z,12.10
2017-10-28T13:10:08.222Z,12.10
2017-10-28T13:12:35.808Z,12.00
2017-10-28T13:15:03.405Z,12.00
2017-10-28T13:17:31.012Z,12.10
2017-10-28T13:19:58.690Z,12.20
2017-10-28T13:22:26.276Z,12.10
2017-10-28T13:24:53.917Z,11.90
2017-10-28T13:27:22.451Z,12.00
2017-10-28T13:29:50.081Z,12.00
2017-10-28T13:32:17.713Z,12.00
2017-10-28T13:34:45.442Z,12.10
2017-10-28T13:37:13.134Z,11.90
2017-10-28T13:39:40.809Z,11.90
2017-10-28T13:42:08.473Z,12.00
2017-10-28T13:44:36.107Z,12.00
2017-10-28T13:47:03.704Z,12.00
2017-10-28T13:49:31.313Z,12.00
2017-10-28T13:51:58.983Z,12.00
2017-10-28T13:54:26.609Z,12.00
2017-10-28T13:56:54.209Z,12.10
2017-10-28T13:59:22.583Z,12.20
2017-10-28T14:01:50.960Z,12.30
2017-10-28T14:04:18.586Z,12.20
2017-10-28T14:06:46.527Z,12.20
2017-10-28T14:09:14.161Z,12.20
2017-10-28T14:11:42.597Z,12.00
2017-10-28T14:14:10.335Z,12.00
2017-10-28T14:16:38.009Z,12.00
2017-10-28T14:19:05.636Z,11.90
2017-10-28T14:21:33.250Z,12.00
2017-10-28T14:24:01.591Z,12.10
2017-10-28T14:26:29.292Z,12.10
2017-10-28T14:28:56.977Z,12.10
2017-10-28T14:31:25.519Z,12.10
2017-10-28T14:33:53.224Z,12.10
2017-10-28T14:36:21.798Z,12.10
2017-10-28T14:38:49.513Z,12.20
2017-10-28T14:41:17.276Z,12.10
2017-10-28T14:43:44.924Z,12.00
2017-10-28T14:46:13.366Z,12.00
2017-10-28T14:48:40.973Z,12.00
2017-10-28T14:51:09.157Z,12.00
2017-10-28T14:53:36.814Z,11.90
2017-10-28T14:56:04.461Z,11.90
2017-10-28T14:58:32.894Z,12.00
2017-10-28T15:01:00.533Z,11.90
2017-10-28T15:03:28.919Z,11.70
2017-10-28T15:05:56.572Z,11.70
2017-10-28T15:08:24.235Z,11.80
2017-10-28T15:10:51.985Z,11.70
2017-10-28T15:13:19.560Z,11.70
2017-10-28T15:15:47.160Z,11.70
2017-10-28T15:18:15.599Z,11.80
2017-10-28T15:20:43.199Z,11.80
2017-10-28T15:23:10.759Z,11.80
2017-10-28T15:25:38.382Z,11.50
2017-10-28T15:28:06.001Z,11.40
2017-10-28T15:30:34.440Z,11.20
2017-10-28T15:33:02.090Z,11.20
2017-10-28T15:35:29.723Z,11.20
2017-10-28T15:37:57.337Z,11.10
2017-10-28T15:40:25.128Z,11.20
2017-10-28T15:42:52.734Z,11.00
2017-10-28T15:45:20.393Z,10.80
2017-10-28T15:47:48.109Z,10.90
2017-10-28T15:50:15.776Z,10.90
2017-10-28T15:52:45.135Z,10.80
2017-10-28T15:55:12.821Z,10.70
2017-10-28T15:57:40.455Z,10.80
2017-10-28T16:00:08.101Z,10.80
2017-10-28T16:02:35.716Z,10.70
2017-10-28T16:05:03.356Z,10.60
2017-10-28T16:07:30.950Z,10.60
2017-10-28T16:09:59.328Z,10.60
2017-10-28T16:12:27.708Z,10.70
2017-10-28T16:14:56.105Z,10.70
2017-10-28T16:17:24.506Z,10.60
2017-10-28T16:19:52.087Z,10.60
2017-10-28T16:22:19.714Z,10.60
2017-10-28T16:24:48.198Z,10.60
2017-10-28T16:27:15.839Z,10.60
2017-10-28T16:29:44.185Z,10.70
2017-10-28T16:32:11.794Z,10.60
2017-10-28T16:34:39.428Z,10.60
2017-10-28T16:37:07.118Z,10.70
2017-10-28T16:39:34.773Z,10.60
2017-10-28T16:42:02.452Z,10.60
2017-10-28T16:44:30.059Z,10.60
2017-10-28T16:46:58.434Z,10.60
2017-10-28T16:49:26.805Z,10.70
2017-10-28T16:51:54.447Z,10.70
2017-10-28T16:54:22.061Z,10.70
2017-10-28T16:56:50.450Z,10.80
2017-10-28T16:59:18.113Z,10.80
2017-10-28T17:01:45.801Z,10.70
2017-10-28T17:04:13.463Z,10.70
2017-10-28T17:06:41.153Z,10.70
2017-10-28T17:09:08.772Z,10.70
2017-10-28T17:11:36.371Z,10.70
2017-10-28T17:14:04.765Z,10.80
2017-10-28T17:16:33.111Z,10.80
2017-10-28T17:19:00.681Z,10.80
2017-10-28T17:21:28.255Z,10.80
2017-10-28T17:23:56.667Z,10.80
2017-10-28T17:26:24.287Z,10.80
2017-10-28T17:28:51.905Z,10.80
2017-10-28T17:31:19.620Z,10.80
2017-10-28T17:33:47.209Z,10.80
2017-10-28T17:36:14.838Z,10.90
2017-10-28T17:38:42.445Z,10.90
2017-10-28T17:41:10.110Z,11.00
2017-10-28T17:43:37.700Z,11.00
2017-10-28T17:46:06.062Z,11.00
2017-10-28T17:48:33.651Z,11.00
2017-10-28T17:51:01.263Z,11.00
2017-10-28T17:53:28.852Z,11.00
2017-10-28T17:55:57.265Z,11.10
2017-10-28T17:58:24.869Z,11.00
2017-10-28T18:00:52.456Z,11.10
2017-10-28T18:03:20.874Z,11.10
2017-10-28T18:05:48.471Z,11.10
2017-10-28T18:08:16.079Z,11.10
2017-10-28T18:10:43.673Z,11.10
2017-10-28T18:13:11.331Z,11.10
2017-10-28T18:15:38.937Z,11.20
2017-10-28T18:18:07.299Z,11.30
2017-10-28T18:20:35.028Z,11.30
2017-10-28T18:23:02.644Z,11.30
2017-10-28T18:25:31.137Z,11.20
2017-10-28T18:27:59.533Z,11.20
2017-10-28T18:30:27.177Z,11.20
2017-10-28T18:32:59.818Z,11.10
2017-10-28T18:35:27.458Z,11.10
2017-10-28T18:37:55.136Z,11.10
2017-10-28T18:40:22.725Z,11.10
2017-10-28T18:42:50.359Z,11.10
2017-10-28T18:45:17.973Z,11.10
2017-10-28T18:47:45.616Z,11.10
2017-10-28T18:50:13.983Z,11.10
2017-10-28T18:52:41.614Z,11.10
2017-10-28T18:55:09.192Z,11.10
2017-10-28T18:57:36.783Z,11.10
2017-10-28T19:00:05.182Z,11.10
2017-10-28T19:02:32.811Z,11.10
2017-10-28T19:05:01.208Z,11.20
2017-10-28T19:07:28.836Z,11.20
2017-10-28T19:09:56.457Z,11.20
2017-10-28T19:12:24.855Z,11.30
2017-10-28T19:14:52.457Z,11.30
2017-10-28T19:17:20.866Z,11.30
2017-10-28T19:19:48.514Z,11.30
2017-10-28T19:22:16.172Z,11.40
2017-10-28T19:24:43.745Z,11.40
2017-10-28T19:27:11.360Z,11.50
2017-10-28T19:29:38.969Z,11.50
2017-10-28T19:32:06.637Z,11.50
2017-10-28T19:34:34.217Z,11.60
2017-10-28T19:37:01.803Z,11.60
2017-10-28T19:39:30.286Z,11.70
2017-10-28T19:41:58.717Z,11.80
2017-10-28T19:44:26.661Z,11.70
2017-10-28T19:46:54.281Z,11.80
2017-10-28T19:49:24.244Z,11.90
2017-10-28T19:51:51.877Z,11.90
2017-10-28T19:54:20.230Z,12.00
2017-10-28T19:56:48.662Z,12.10
2017-10-28T19:59:16.296Z,12.00
2017-10-28T20:01:43.921Z,12.10
2017-10-28T20:04:11.559Z,12.10
2017-10-28T20:06:39.225Z,12.20
2017-10-28T20:09:06.894Z,12.30
2017-10-28T20:11:34.487Z,12.40
2017-10-28T20:14:02.108Z,12.40
2017-10-28T20:16:29.693Z,12.50
2017-10-28T20:18:57.314Z,12.50
2017-10-28T20:21:24.948Z,12.60
2017-10-28T20:23:53.332Z,12.60
2017-10-28T20:26:20.942Z,12.60
2017-10-28T20:28:48.574Z,12.60
2017-10-28T20:31:16.153Z,12.70
2017-10-28T20:33:43.844Z,12.70
2017-10-28T20:36:11.449Z,12.70
2017-10-28T20:38:39.065Z,12.70
2017-10-28T20:41:06.724Z,12.80
2017-10-28T20:43:34.302Z,12.80
2017-10-28T20:46:02.706Z,12.80
2017-10-28T20:48:30.321Z,12.90
2017-10-28T20:50:57.943Z,12.90
2017-10-28T20:53:25.564Z,12.90
2017-10-28T20:55:54.011Z,12.90
2017-10-28T20:58:21.638Z,12.90
2017-10-28T21:00:49.235Z,12.90
2017-10-28T21:03:16.837Z,12.80
2017-10-28T21:05:45.220Z,12.80
2017-10-28T21:08:13.619Z,12.80
2017-10-28T21:10:41.227Z,12.80
2017-10-28T21:13:08.846Z,12.80
2017-10-28T21:15:36.547Z,12.80
2017-10-28T21:18:04.137Z,12.80
2017-10-28T21:20:32.539Z,12.80
2017-10-28T21:23:00.131Z,12.70
2017-10-28T21:25:27.805Z,12.80
2017-10-28T21:27:55.385Z,12.80
2017-10-28T21:30:23.002Z,12.80
2017-10-28T21:32:50.609Z,12.80
2017-10-28T21:35:18.241Z,12.90
2017-10-28T21:37:45.810Z,12.90
2017-10-28T21:40:13.385Z,13.00
2017-10-28T21:42:41.829Z,13.00
2017-10-28T21:45:09.451Z,13.00
2017-10-28T21:47:37.870Z,13.10
2017-10-28T21:50:06.236Z,13.10
2017-10-28T21:52:33.849Z,13.10
2017-10-28T21:55:02.270Z,13.20
2017-10-28T21:57:29.853Z,13.10
2017-10-28T21:59:57.462Z,13.20
2017-10-28T22:02:25.893Z,13.20
2017-10-28T22:04:53.499Z,13.10
2017-10-28T22:07:21.907Z,13.10
2017-10-28T22:09:49.478Z,13.10
2017-10-28T22:12:17.154Z,13.10
2017-10-28T22:14:44.724Z,13.20
2017-10-28T22:17:12.436Z,13.10
2017-10-28T22:19:40.259Z,13.10
2017-10-28T22:22:07.981Z,13.10
2017-10-28T22:24:35.582Z,13.20
2017-10-28T22:27:03.184Z,13.10
2017-10-28T22:29:30.774Z,13.10
2017-10-28T22:31:58.370Z,13.10
2017-10-28T22:34:26.010Z,13.20
2017-10-28T22:36:53.643Z,13.10
2017-10-28T22:39:21.258Z,13.10
2017-10-28T22:41:48.887Z,13.10
2017-10-28T22:44:16.504Z,13.10
2017-10-28T22:46:44.852Z,13.10
2017-10-28T22:49:12.561Z,13.20
2017-10-28T22:51:40.175Z,13.10
2017-10-28T22:54:07.779Z,13.20
2017-10-28T22:56:35.364Z,13.20
2017-10-28T22:59:02.934Z,13.20
2017-10-28T23:01:30.520Z,13.20
2017-10-28T23:03:58.146Z,13.30
2017-10-28T23:06:25.784Z,13.20
2017-10-28T23:08:53.382Z,13.20
2017-10-28T23:11:20.961Z,13.20
2017-10-28T23:13:48.605Z,13.20
2017-10-28T23:16:16.216Z,13.10
2017-10-28T23:18:43.887Z,13.10
2017-10-28T23:21:11.472Z,13.10
2017-10-28T23:23:39.037Z,13.10
2017-10-28T23:26:06.718Z,13.10
2017-10-28T23:28:34.323Z,13.10
2017-10-28T23:31:01.923Z,13.10
2017-10-28T23:33:29.678Z,13.10
2017-10-28T23:35:57.262Z,13.10
2017-10-28T23:38:24.876Z,13.10
2017-10-28T23:40:52.490Z,13.10
2017-10-28T23:43:20.144Z,13.10
2017-10-28T23:45:48.511Z,13.10
2017-10-28T23:48:16.093Z,13.10
2017-10-28T23:50:43.763Z,13.10
2017-10-28T23:53:12.133Z,13.10
2017-10-28T23:55:40.533Z,13.10
2017-10-28T23:58:08.944Z,13.10
